Pineora, Georgia
Current Conditions -  °F | °C
As of 12:53 AM on Friday 28 Nov 2014 (Local Time) from KSAV Reporting Station
Clear Clear  
Wind Chill: 36°   Ceiling: Unl
Heat Index: 41°   Visibility: 10mi
Dew Point: 30°   Wind: 8mph
Humidity: 65%   Direction: 310°NW
Pressure: 30.33"   Gusts: NA
Location:  32.3167°N, 81.3986°W
Report Text: KSAV 280553Z AUTO 31007KT 10SM CLR 05/M01 A3033 RMK AO2 SLP270 T00501011 10083 20050 51005 TSNO
Loading
Personal Weather Stations






























Interactive Weather Map New forecast layout! Learn more

10-Day Weather Forecast

Advertisements
Track Severe Weather on mobile